Time;durP1;ratioP1;P1;durP2;ratioP2;P2;SDS_P1;SDS_P2;PMS_P1;PMS_P2;Temp;Humidity;BMP_temperature;BMP_pressure;BME280_temperature;BME280_humidity;BME280_pressure;Samples;Min_cycle;Max_cycle;Signal;HPM_P1;HPM_P2
2022/03/23 00:00:32;;;;;;;0.00;0.00;;;;;;;18.74;29.90;102937.59;10523701;28;20124;-80
2022/03/23 00:05:34;;;;;;;0.00;0.00;;;;;;;20.10;26.89;102945.78;10513116;28;20076;-80
2022/03/23 00:10:36;;;;;;;0.30;0.30;;;;;;;20.21;26.53;102948.59;10515999;28;20126;-80
2022/03/23 00:15:39;;;;;;;0.00;0.00;;;;;;;19.88;27.86;102939.28;10522711;28;20043;-80
2022/03/23 00:20:41;;;;;;;0.20;0.20;;;;;;;18.47;30.17;102933.44;10526120;28;20538;-80
2022/03/23 00:25:42;;;;;;;0.00;0.00;;;;;;;19.33;28.07;102945.94;10530028;28;20059;-80
2022/03/23 00:30:44;;;;;;;0.00;0.00;;;;;;;19.48;28.36;102944.53;10525682;28;20368;-79
2022/03/23 00:36:06;;;;;;;0.00;0.00;;;;;;;18.94;29.02;102938.09;10514559;28;20055;-79
2022/03/23 00:41:08;;;;;;;0.00;0.00;;;;;;;17.99;30.75;102946.09;10541472;28;20051;-80
2022/03/23 00:46:13;;;;;;;0.00;0.00;;;;;;;17.36;31.38;102947.75;10521095;28;20048;-79
2022/03/23 00:51:14;;;;;;;0.00;0.00;;;;;;;18.07;31.21;102939.38;10544621;28;20125;-80
2022/03/23 00:56:16;;;;;;;0.00;0.00;;;;;;;18.93;29.43;102934.63;10521747;28;20075;-80
2022/03/23 01:01:18;;;;;;;0.00;0.00;;;;;;;19.11;28.41;102942.00;10520479;28;20411;-79
2022/03/23 01:06:20;;;;;;;0.00;0.00;;;;;;;19.85;26.88;102940.06;10514001;28;20056;-79
2022/03/23 01:11:22;;;;;;;8.10;1.58;;;;;;;14.73;37.42;102953.91;10523134;28;20068;-79
2022/03/23 01:16:25;;;;;;;0.00;0.00;;;;;;;16.06;35.32;102948.66;10534319;28;20037;-80
2022/03/23 01:21:28;;;;;;;0.25;0.25;;;;;;;15.86;36.11;102941.03;10521477;28;20572;-80
2022/03/23 01:26:30;;;;;;;0.00;0.00;;;;;;;18.68;29.65;102926.16;10522299;28;20130;-79
2022/03/23 01:31:34;;;;;;;1.75;1.65;;;;;;;17.84;29.96;102932.59;10516452;28;20130;-79
2022/03/23 01:36:36;;;;;;;0.00;0.00;;;;;;;18.73;28.50;102914.97;10520709;28;20111;-79
2022/03/23 01:41:39;;;;;;;0.00;0.00;;;;;;;18.00;29.91;102927.00;10539387;28;20548;-79
2022/03/23 01:47:08;;;;;;;0.00;0.00;;;;;;;17.97;30.17;102926.03;10515195;28;20123;-80
2022/03/23 01:52:13;;;;;;;0.00;0.00;;;;;;;17.00;32.23;102927.56;10538199;28;20081;-80
2022/03/23 01:57:16;;;;;;;0.00;0.00;;;;;;;17.66;30.55;102913.00;10518138;28;20044;-80
2022/03/23 02:02:19;;;;;;;0.00;0.00;;;;;;;16.77;31.86;102916.34;10515509;28;20044;-79
2022/03/23 02:07:30;;;;;;;0.00;0.00;;;;;;;17.07;31.47;102908.69;10504084;28;20040;-80
2022/03/23 02:12:32;;;;;;;0.00;0.00;;;;;;;17.72;29.67;102905.34;10514766;28;20047;-80
2022/03/23 02:17:34;;;;;;;0.00;0.00;;;;;;;18.44;28.73;102896.81;10552232;28;20514;-80
2022/03/23 02:22:36;;;;;;;0.00;0.00;;;;;;;18.30;28.46;102899.09;10544157;28;20048;-80
2022/03/23 02:27:39;;;;;;;0.00;0.00;;;;;;;17.88;30.00;102905.78;10520829;28;20040;-80
2022/03/23 02:32:41;;;;;;;0.00;0.00;;;;;;;18.00;29.11;102900.94;10519833;28;20039;-80
2022/03/23 02:37:43;;;;;;;0.00;0.00;;;;;;;16.85;31.16;102901.88;10504049;28;20507;-80
2022/03/23 02:42:44;;;;;;;0.00;0.00;;;;;;;17.52;29.14;102907.38;10522043;28;20117;-80
2022/03/23 02:47:46;;;;;;;0.00;0.00;;;;;;;16.94;30.18;102898.72;10526199;28;20048;-79
2022/03/23 03:03:30;;;;;;;0.00;0.00;;;;;;;17.46;29.90;102901.13;10531988;28;20019;-80
2022/03/23 03:08:50;;;;;;;0.00;0.00;;;;;;;17.49;30.00;102903.81;10509048;28;20555;-80
2022/03/23 03:13:54;;;;;;;0.00;0.00;;;;;;;16.95;29.71;102914.38;10533981;28;20040;-80
2022/03/23 03:18:56;;;;;;;0.03;0.03;;;;;;;14.79;33.53;102915.22;10549064;28;20082;-80
2022/03/23 03:23:58;;;;;;;0.00;0.00;;;;;;;16.01;31.88;102913.81;10500532;28;20040;-80
2022/03/23 03:28:59;;;;;;;0.00;0.00;;;;;;;15.63;32.31;102926.25;10539911;28;20086;-80
2022/03/23 03:34:01;;;;;;;0.10;0.10;;;;;;;16.80;30.33;102909.53;10515249;28;20495;-80
2022/03/23 03:39:05;;;;;;;0.00;0.00;;;;;;;16.57;31.09;102913.13;10534855;28;20048;-80
2022/03/23 03:44:07;;;;;;;0.22;0.22;;;;;;;16.25;31.29;102916.38;10515639;28;20407;-80
2022/03/23 03:49:09;;;;;;;0.00;0.00;;;;;;;17.02;29.82;102922.38;10530026;28;20109;-80
2022/03/23 03:54:12;;;;;;;0.98;0.85;;;;;;;16.54;30.62;102926.00;10507321;28;20074;-80
2022/03/23 03:59:14;;;;;;;0.00;0.00;;;;;;;17.60;28.64;102925.88;10523540;28;20154;-80
2022/03/23 04:04:16;;;;;;;0.00;0.00;;;;;;;16.23;31.01;102936.25;10533006;28;20048;-80
2022/03/23 04:09:18;;;;;;;0.00;0.00;;;;;;;15.82;31.17;102935.63;10514933;28;20110;-80
2022/03/23 04:14:19;;;;;;;3.90;1.35;;;;;;;14.36;34.72;102936.75;10527049;28;20138;-80
2022/03/23 04:19:21;;;;;;;1.60;1.27;;;;;;;14.62;34.95;102939.59;10524187;28;20155;-80
2022/03/23 04:24:22;;;;;;;0.63;0.63;;;;;;;17.09;30.17;102930.41;10537451;28;20040;-80
2022/03/23 04:29:26;;;;;;;0.38;0.38;;;;;;;16.03;31.24;102938.16;10529679;28;20127;-80
2022/03/23 04:34:27;;;;;;;0.00;0.00;;;;;;;16.76;29.97;102936.31;10522839;28;20131;-80
2022/03/23 04:39:29;;;;;;;0.00;0.00;;;;;;;16.18;29.79;102948.19;10506649;28;20131;-80
2022/03/23 04:44:30;;;;;;;0.38;0.38;;;;;;;16.14;30.51;102947.22;10522150;28;20093;-80
2022/03/23 04:49:32;;;;;;;0.00;0.00;;;;;;;16.97;29.86;102945.66;10504989;28;20036;-80
2022/03/23 04:54:34;;;;;;;0.00;0.00;;;;;;;17.10;29.35;102939.13;10517641;28;20869;-80
2022/03/23 04:59:35;;;;;;;0.10;0.10;;;;;;;17.41;28.54;102943.56;10518863;28;20079;-80
2022/03/23 05:04:37;;;;;;;0.00;0.00;;;;;;;16.34;29.57;102955.72;10519709;28;20068;-80
2022/03/23 05:09:40;;;;;;;0.00;0.00;;;;;;;16.32;29.96;102951.28;10536880;28;20044;-80
2022/03/23 05:14:41;;;;;;;0.47;0.30;;;;;;;15.98;31.49;102958.78;10540896;28;20143;-80
2022/03/23 05:19:44;;;;;;;0.00;0.00;;;;;;;16.58;29.56;102961.69;10537340;28;20055;-80
2022/03/23 05:24:46;;;;;;;0.00;0.00;;;;;;;16.72;29.98;102968.25;10519137;28;20075;-81
2022/03/23 05:29:48;;;;;;;0.00;0.00;;;;;;;16.99;29.65;102962.22;10542090;28;20048;-80
2022/03/23 05:34:50;;;;;;;0.00;0.00;;;;;;;16.43;30.19;102960.34;10501938;28;20055;-80
2022/03/23 05:39:51;;;;;;;0.10;0.10;;;;;;;15.27;32.50;102965.56;10522846;28;20043;-80
2022/03/23 05:44:53;;;;;;;4.78;4.07;;;;;;;16.36;30.56;102967.91;10535407;28;20442;-80
2022/03/23 05:49:55;;;;;;;0.00;0.00;;;;;;;14.41;33.94;102980.22;10530060;28;20136;-80
2022/03/23 05:54:56;;;;;;;0.00;0.00;;;;;;;16.73;29.89;102969.16;10508258;28;20079;-80
2022/03/23 05:59:58;;;;;;;0.00;0.00;;;;;;;17.59;29.11;102966.66;10549674;28;20483;-80
2022/03/23 06:04:59;;;;;;;0.00;0.00;;;;;;;17.76;29.23;102969.78;10541322;28;20052;-79
2022/03/23 06:10:02;;;;;;;0.65;0.65;;;;;;;17.84;29.26;102972.63;10540352;28;20051;-79
2022/03/23 06:15:06;;;;;;;3.22;3.03;;;;;;;17.85;29.17;102978.69;10518875;28;20067;-79
2022/03/23 06:20:08;;;;;;;0.00;0.00;;;;;;;15.62;31.69;102987.75;10520487;28;20444;-79
2022/03/23 06:25:10;;;;;;;0.00;0.00;;;;;;;16.96;31.93;102982.94;10528450;28;20052;-79
2022/03/23 06:30:12;;;;;;;0.00;0.00;;;;;;;17.41;31.04;102987.84;10535631;28;20442;-79
2022/03/23 06:35:14;;;;;;;0.00;0.00;;;;;;;17.74;30.31;102988.81;10519793;28;20040;-79
2022/03/23 06:40:15;;;;;;;0.00;0.00;;;;;;;17.22;32.13;102991.59;10528556;28;20078;-79
2022/03/23 06:45:18;;;;;;;0.32;0.32;;;;;;;17.37;32.97;102996.41;10539493;28;20040;-79
2022/03/23 06:50:20;;;;;;;0.22;0.22;;;;;;;16.12;34.50;103006.06;10537968;28;20075;-79
2022/03/23 06:55:21;;;;;;;0.52;0.52;;;;;;;16.89;33.39;103007.88;10520997;28;20079;-79
2022/03/23 07:00:23;;;;;;;0.00;0.00;;;;;;;19.31;30.24;103001.66;10521536;28;20443;-79
2022/03/23 07:05:25;;;;;;;0.00;0.00;;;;;;;20.08;30.18;103005.06;10521597;28;20040;-79
2022/03/23 07:10:27;;;;;;;0.00;0.00;;;;;;;20.88;28.77;103001.31;10521148;28;20087;-80
2022/03/23 07:15:29;;;;;;;0.55;0.32;;;;;;;20.88;29.55;103010.88;10520762;28;20498;-80
2022/03/23 07:20:31;;;;;;;0.17;0.10;;;;;;;21.12;29.64;103005.16;10520600;28;20051;-80
2022/03/23 07:25:33;;;;;;;0.20;0.20;;;;;;;21.83;29.72;103006.19;10534438;28;20028;-79
2022/03/23 07:30:35;;;;;;;3.30;1.48;;;;;;;22.47;26.58;103010.38;10518135;28;20056;-79
2022/03/23 07:35:37;;;;;;;0.43;0.43;;;;;;;22.69;24.75;103010.56;10538104;28;20044;-79
2022/03/23 07:41:04;;;;;;;0.00;0.00;;;;;;;23.29;24.66;103013.69;10538277;28;20032;-79
2022/03/23 07:46:06;;;;;;;0.10;0.10;;;;;;;23.55;23.94;103009.44;10537597;28;20082;-79
2022/03/23 07:51:07;;;;;;;0.00;0.00;;;;;;;24.24;23.69;103009.72;10535897;28;20119;-79
2022/03/23 07:56:09;;;;;;;0.00;0.00;;;;;;;23.64;24.31;103017.41;10519724;28;20043;-80
2022/03/23 08:01:10;;;;;;;0.20;0.20;;;;;;;25.54;21.61;103010.56;10552943;28;20036;-79
2022/03/23 08:06:12;;;;;;;1.38;1.27;;;;;;;25.33;21.91;103029.06;10541714;28;20044;-79
2022/03/23 08:11:14;;;;;;;0.00;0.00;;;;;;;24.92;22.18;103037.91;10516779;28;20074;-80
2022/03/23 08:16:18;;;;;;;0.20;0.20;;;;;;;24.27;22.72;103032.53;10534635;28;20087;-80
2022/03/23 08:21:21;;;;;;;0.17;0.17;;;;;;;24.50;21.67;103032.56;10518815;28;20036;-80
2022/03/23 08:26:22;;;;;;;0.08;0.08;;;;;;;26.00;21.13;103020.03;10549689;28;20483;-80
2022/03/23 08:31:25;;;;;;;0.45;0.30;;;;;;;25.74;20.79;103029.84;10531535;28;20076;-80
2022/03/23 08:36:27;;;;;;;0.57;0.55;;;;;;;25.02;21.35;103029.09;10512862;28;20067;-80
2022/03/23 08:41:28;;;;;;;2.30;1.55;;;;;;;25.80;20.15;103028.94;10532531;28;20068;-80
2022/03/23 08:46:32;;;;;;;0.55;0.55;;;;;;;25.59;20.56;103030.75;10510175;28;20083;-80
2022/03/23 08:51:33;;;;;;;5.60;3.72;;;;;;;26.96;20.77;103024.66;10514464;28;20103;-78
2022/03/23 08:56:36;;;;;;;0.70;0.70;;;;;;;29.47;16.85;103029.00;10511653;28;20044;-79
2022/03/23 09:01:38;;;;;;;3.20;0.95;;;;;;;25.43;19.96;103039.63;10523048;28;20051;-79
2022/03/23 09:06:40;;;;;;;0.00;0.00;;;;;;;28.07;17.75;103034.00;10538132;28;20506;-79
2022/03/23 09:11:44;;;;;;;0.52;0.52;;;;;;;29.53;16.90;103023.56;10520194;28;20043;-79
2022/03/23 09:16:47;;;;;;;0.08;0.08;;;;;;;29.54;16.91;103023.56;10554668;28;20083;-79
2022/03/23 09:21:50;;;;;;;1.77;1.65;;;;;;;28.81;16.63;103032.88;10519707;28;20554;-78
2022/03/23 09:26:53;;;;;;;0.00;0.00;;;;;;;28.89;16.83;103037.16;10520488;28;20062;-79
2022/03/23 09:31:58;;;;;;;0.68;0.52;;;;;;;27.94;17.83;103033.25;10554176;28;20447;-79
2022/03/23 09:42:22;;;;;;;8.10;2.08;;;;;;;29.91;18.02;103021.91;10518241;28;20147;-79
2022/03/23 09:47:24;;;;;;;0.75;0.75;;;;;;;28.42;17.91;103024.63;10518264;28;20050;-79
2022/03/23 09:52:27;;;;;;;0.00;0.00;;;;;;;28.67;17.92;103020.72;10516425;28;20068;-80
2022/03/23 09:57:29;;;;;;;1.45;0.40;;;;;;;28.88;16.83;103017.72;10516250;28;20055;-80
2022/03/23 10:02:57;;;;;;;2.22;2.05;;;;;;;28.56;17.09;103023.56;10516701;28;20266;-83
2022/03/23 10:08:20;;;;;;;0.25;0.25;;;;;;;30.67;17.50;103012.16;10515998;28;20040;-82
2022/03/23 10:13:56;;;;;;;3.20;2.42;;;;;;;27.73;16.30;103017.66;10528718;28;20075;-84
2022/03/23 10:19:00;;;;;;;1.02;1.02;;;;;;;33.03;13.84;103005.84;10535232;28;20048;-84
2022/03/23 10:24:05;;;;;;;2.03;1.55;;;;;;;31.00;14.80;103010.38;10516711;28;20066;-83
2022/03/23 10:29:26;;;;;;;0.50;0.50;;;;;;;30.11;16.51;103009.97;10516870;28;20503;-82
2022/03/23 10:34:51;;;;;;;2.78;1.67;;;;;;;29.96;15.10;103001.44;10516258;28;20041;-83
2022/03/23 10:39:58;;;;;;;1.42;1.30;;;;;;;32.12;13.62;102996.47;10535096;28;20077;-83
2022/03/23 10:45:07;;;;;;;0.17;0.17;;;;;;;32.84;12.47;102989.66;10516955;28;20437;-83
2022/03/23 10:50:21;;;;;;;1.63;1.02;;;;;;;31.94;13.23;102997.94;10516550;28;20051;-82
2022/03/23 10:55:28;;;;;;;3.05;1.50;;;;;;;31.80;12.84;102993.03;10515726;28;20048;-82
2022/03/23 11:00:41;;;;;;;0.75;0.75;;;;;;;30.98;14.07;102980.25;10511713;28;20558;-82
2022/03/23 11:05:48;;;;;;;1.13;1.02;;;;;;;33.46;11.30;102974.00;10513982;28;20113;-82
2022/03/23 11:16:27;;;;;;;2.40;1.80;;;;;;;32.36;12.14;102977.91;10533595;28;20076;-81
2022/03/23 11:21:29;;;;;;;1.02;0.80;;;;;;;32.45;12.30;102972.28;10548356;28;20400;-81
2022/03/23 11:26:31;;;;;;;31.77;7.95;;;;;;;32.57;13.11;102977.19;10514285;28;20170;-82
2022/03/23 11:31:33;;;;;;;6.45;5.97;;;;;;;33.62;10.35;102959.13;10532284;28;20052;-83
2022/03/23 11:36:41;;;;;;;3.08;2.78;;;;;;;33.90;9.76;102965.19;10515246;28;20044;-82
2022/03/23 11:41:43;;;;;;;0.75;0.75;;;;;;;28.68;13.76;102966.75;10527237;28;20050;-83
2022/03/23 11:46:45;;;;;;;1.05;0.28;;;;;;;29.71;12.42;102961.25;10533870;28;20048;-83
2022/03/23 11:52:16;;;;;;;0.45;0.45;;;;;;;32.97;10.88;102947.34;10515473;28;20570;-84
2022/03/23 11:57:21;;;;;;;4.80;2.13;;;;;;;34.86;10.17;102934.34;10515526;28;20475;-84
2022/03/23 12:02:39;;;;;;;0.68;0.63;;;;;;;34.79;10.41;102937.31;10514442;28;20556;-83
2022/03/23 12:07:46;;;;;;;1.85;0.63;;;;;;;32.63;11.17;102940.53;10515649;28;20040;-83
2022/03/23 12:12:48;;;;;;;1.50;1.40;;;;;;;30.96;10.54;102944.81;10515014;28;20067;-84
2022/03/23 12:17:56;;;;;;;0.00;0.00;;;;;;;32.58;12.01;102933.56;10533082;28;20098;-83
2022/03/23 12:23:43;;;;;;;0.75;0.70;;;;;;;33.57;10.07;102923.72;10532861;28;20040;-83
2022/03/23 12:28:55;;;;;;;1.90;1.67;;;;;;;33.89;9.67;102931.38;10547708;28;20086;-84
2022/03/23 12:34:16;;;;;;;0.75;0.75;;;;;;;31.74;11.26;102926.59;10553050;28;20418;-82
2022/03/23 12:39:45;;;;;;;0.43;0.30;;;;;;;29.74;11.03;102927.50;10541920;28;20131;-83
2022/03/23 12:44:47;;;;;;;1.27;0.93;;;;;;;33.74;9.43;102912.31;10537954;28;20068;-83
2022/03/23 13:00:52;;;;;;;0.55;0.50;;;;;;;31.66;10.90;102907.31;10519998;28;20048;-83
2022/03/23 13:05:58;;;;;;;0.52;0.52;;;;;;;32.59;13.93;102895.28;10536913;28;20514;-82
2022/03/23 13:11:05;;;;;;;0.00;0.00;;;;;;;33.09;10.04;102898.84;10516102;28;20072;-83
2022/03/23 13:16:09;;;;;;;3.30;2.72;;;;;;;27.91;12.76;102902.63;10532022;28;20057;-83
2022/03/23 13:21:17;;;;;;;13.27;0.65;;;;;;;30.12;11.47;102900.06;10519291;28;20044;-79
2022/03/23 13:26:21;;;;;;;2.38;1.60;;;;;;;28.64;11.01;102886.38;10538723;28;20051;-78
2022/03/23 13:31:31;;;;;;;0.00;0.00;;;;;;;31.84;9.20;102882.72;10520128;28;20561;-79
2022/03/23 13:36:34;;;;;;;0.68;0.15;;;;;;;31.01;10.60;102873.69;10521250;28;20080;-77
2022/03/23 13:46:57;;;;;;;0.57;0.57;;;;;;;29.35;11.15;102868.19;10519526;28;20082;-79
2022/03/23 13:52:01;;;;;;;2.72;1.77;;;;;;;28.63;10.79;102866.97;10510008;28;20612;-78
2022/03/23 13:57:02;;;;;;;0.65;0.65;;;;;;;29.31;10.63;102855.91;10526991;28;20127;-79
2022/03/23 14:02:04;;;;;;;2.63;2.15;;;;;;;27.41;12.54;102874.22;10509824;28;20070;-79
2022/03/23 14:07:08;;;;;;;1.20;1.10;;;;;;;28.47;11.42;102852.25;10518044;28;20048;-79
2022/03/23 14:12:11;;;;;;;2.15;1.95;;;;;;;28.03;12.36;102857.41;10536629;28;20040;-79
2022/03/23 14:17:23;;;;;;;0.08;0.08;;;;;;;29.53;9.88;102858.94;10527347;28;20109;-79
2022/03/23 14:22:27;;;;;;;1.08;0.35;;;;;;;29.31;10.18;102846.16;10528626;28;20048;-78
2022/03/23 14:27:36;;;;;;;0.32;0.32;;;;;;;29.04;12.23;102842.31;10524768;28;20059;-78
2022/03/23 14:32:50;;;;;;;1.43;0.77;;;;;;;29.80;11.56;102838.81;10537384;28;20075;-77
2022/03/23 14:37:54;;;;;;;1.35;0.90;;;;;;;28.84;10.10;102840.09;10517265;28;20148;-78
2022/03/23 14:43:02;;;;;;;0.80;0.75;;;;;;;28.81;10.50;102831.28;10535769;28;20071;-78
2022/03/23 14:48:25;;;;;;;3.42;2.60;;;;;;;28.78;11.11;102825.16;10535580;28;20044;-78
2022/03/23 14:53:29;;;;;;;14.60;13.25;;;;;;;29.64;9.92;102821.53;10528838;28;20055;-79
2022/03/23 14:58:33;;;;;;;1.98;1.83;;;;;;;29.07;11.20;102821.91;10489873;28;20481;-78
2022/03/23 15:03:37;;;;;;;2.17;1.98;;;;;;;28.35;11.51;102821.53;10518110;28;20051;-78
2022/03/23 15:13:59;;;;;;;0.25;0.25;;;;;;;29.00;10.28;102809.69;10504033;28;20055;-78
2022/03/23 15:19:01;;;;;;;6.80;2.47;;;;;;;26.58;12.07;102813.50;10514061;28;20134;-78
2022/03/23 15:24:02;;;;;;;2.08;1.67;;;;;;;26.82;12.87;102819.41;10498686;28;20082;-78
2022/03/23 15:29:04;;;;;;;5.40;4.88;;;;;;;28.96;12.55;102807.97;10505272;28;20122;-77
2022/03/23 15:34:07;;;;;;;1.25;1.15;;;;;;;26.58;13.81;102817.91;10512163;28;20044;-79
2022/03/23 15:39:10;;;;;;;0.10;0.10;;;;;;;27.02;14.13;102815.63;10535719;28;20036;-79
2022/03/23 15:44:12;;;;;;;0.63;0.63;;;;;;;28.56;12.62;102803.50;10517565;28;20480;-79
2022/03/23 15:49:29;;;;;;;6.50;4.60;;;;;;;26.31;14.21;102803.22;10517578;28;20048;-78
2022/03/23 15:54:31;;;;;;;3.50;1.42;;;;;;;26.75;13.64;102801.84;10543338;28;20555;-79
2022/03/23 15:59:54;;;;;;;2.75;1.33;;;;;;;28.26;11.52;102800.53;10515876;28;20067;-79
2022/03/23 16:04:55;;;;;;;2.80;2.03;;;;;;;26.08;14.09;102796.41;10512142;28;20151;-79
2022/03/23 16:09:58;;;;;;;8.10;3.53;;;;;;;27.15;12.75;102793.41;10517803;28;20044;-79
2022/03/23 16:14:59;;;;;;;0.75;0.75;;;;;;;26.44;14.92;102789.84;10509230;28;20063;-79
2022/03/23 16:20:05;;;;;;;0.52;0.50;;;;;;;26.29;13.54;102798.81;10542894;28;20478;-79
2022/03/23 16:25:08;;;;;;;0.80;0.77;;;;;;;27.21;14.81;102803.03;10511596;28;20109;-78
2022/03/23 16:30:12;;;;;;;5.35;1.45;;;;;;;26.29;14.31;102796.19;10508355;28;20052;-79
2022/03/23 16:35:14;;;;;;;1.40;1.13;;;;;;;26.49;14.63;102791.59;10531169;28;20136;-79
2022/03/23 16:40:19;;;;;;;0.77;0.77;;;;;;;27.07;14.70;102801.47;10506654;28;20098;-79
2022/03/23 16:45:21;;;;;;;0.88;0.88;;;;;;;27.05;14.07;102800.59;10511475;28;20036;-79
2022/03/23 16:50:24;;;;;;;3.53;1.48;;;;;;;26.35;13.88;102804.94;10517675;28;20298;-79
2022/03/23 16:55:29;;;;;;;0.80;0.80;;;;;;;28.27;14.61;102796.94;10486722;28;20047;-79
2022/03/23 17:00:34;;;;;;;1.02;0.95;;;;;;;27.03;14.01;102809.47;10512348;28;20135;-78
2022/03/23 17:16:20;;;;;;;0.57;0.25;;;;;;;26.62;14.10;102813.47;10522876;28;20127;-79
2022/03/23 17:21:22;;;;;;;0.30;0.30;;;;;;;27.53;14.34;102807.88;10528408;28;20089;-78
2022/03/23 17:26:24;;;;;;;0.00;0.00;;;;;;;29.12;12.96;102811.16;10538958;28;20043;-79
2022/03/23 17:31:27;;;;;;;2.55;1.27;;;;;;;27.32;14.03;102816.13;10528198;28;20457;-78
2022/03/23 17:36:29;;;;;;;0.03;0.03;;;;;;;28.16;13.36;102811.28;10491221;28;20131;-78
2022/03/23 17:41:34;;;;;;;0.00;0.00;;;;;;;29.09;12.25;102812.09;10517871;28;20119;-78
2022/03/23 17:46:36;;;;;;;0.00;0.00;;;;;;;29.20;12.18;102811.00;10523850;28;20119;-77
2022/03/23 17:51:38;;;;;;;0.00;0.00;;;;;;;26.63;14.67;102816.09;10524475;28;20072;-78
2022/03/23 17:56:40;;;;;;;0.00;0.00;;;;;;;26.13;14.36;102815.72;10528507;28;20097;-78
2022/03/23 18:01:44;;;;;;;0.85;0.85;;;;;;;26.29;15.08;102827.88;10526727;28;20072;-77
2022/03/23 18:06:49;;;;;;;0.00;0.00;;;;;;;26.39;15.76;102827.81;10515069;28;20464;-78
2022/03/23 18:11:50;;;;;;;0.00;0.00;;;;;;;25.95;16.00;102833.44;10528679;28;20101;-78
2022/03/23 18:16:52;;;;;;;0.00;0.00;;;;;;;26.34;15.57;102822.56;10530929;28;20083;-78
2022/03/23 18:22:00;;;;;;;0.00;0.00;;;;;;;26.13;16.81;102828.91;10492758;28;20074;-78
2022/03/23 18:27:02;;;;;;;0.00;0.00;;;;;;;26.16;15.97;102826.25;10492181;28;20044;-78
2022/03/23 18:32:04;;;;;;;0.00;0.00;;;;;;;25.64;19.42;102832.78;10527703;28;20406;-78
2022/03/23 18:37:06;;;;;;;1.55;1.45;;;;;;;24.38;17.80;102849.06;10530317;28;20094;-78
2022/03/23 18:42:10;;;;;;;5.72;5.32;;;;;;;25.63;15.67;102847.75;10541163;28;20059;-78
2022/03/23 18:47:12;;;;;;;1.85;1.75;;;;;;;24.63;16.77;102851.63;10529315;28;20047;-78
2022/03/23 18:52:31;;;;;;;0.10;0.10;;;;;;;24.35;16.42;102856.97;10525788;28;20036;-78
2022/03/23 18:57:33;;;;;;;1.85;1.75;;;;;;;23.01;18.72;102860.13;10525499;28;20190;-77
2022/03/23 19:02:35;;;;;;;0.47;0.47;;;;;;;24.03;16.95;102862.25;10522103;28;20036;-77
2022/03/23 19:07:36;;;;;;;0.73;0.68;;;;;;;22.66;18.58;102866.06;10490390;28;20515;-77
2022/03/23 19:12:39;;;;;;;0.15;0.15;;;;;;;23.40;17.68;102871.72;10529222;28;20578;-77
2022/03/23 19:17:41;;;;;;;0.65;0.65;;;;;;;22.74;18.39;102877.53;10516321;28;20043;-77
2022/03/23 19:22:42;;;;;;;5.57;5.05;;;;;;;21.87;19.42;102875.91;10511594;28;20539;-77
2022/03/23 19:27:47;;;;;;;0.00;0.00;;;;;;;22.17;19.14;102872.66;10511058;28;20048;-77
2022/03/23 19:32:49;;;;;;;0.00;0.00;;;;;;;21.69;20.09;102876.59;10529716;28;20314;-77
2022/03/23 19:37:51;;;;;;;0.00;0.00;;;;;;;23.01;20.00;102864.53;10528827;28;20791;-78
2022/03/23 19:42:53;;;;;;;0.00;0.00;;;;;;;23.20;18.99;102876.91;10510441;28;20085;-78
2022/03/23 19:47:55;;;;;;;0.00;0.00;;;;;;;22.61;19.04;102870.41;10496805;28;20052;-77
2022/03/23 19:52:56;;;;;;;0.00;0.00;;;;;;;22.50;18.53;102867.69;10521877;28;20050;-78
2022/03/23 19:57:58;;;;;;;0.10;0.10;;;;;;;22.95;18.33;102870.63;10527934;28;20033;-77
2022/03/23 20:03:01;;;;;;;0.00;0.00;;;;;;;22.57;19.86;102879.13;10537816;28;20129;-77
2022/03/23 20:08:03;;;;;;;0.00;0.00;;;;;;;19.91;24.84;102901.00;10507552;28;20313;-78
2022/03/23 20:13:05;;;;;;;0.00;0.00;;;;;;;20.86;24.13;102885.13;10523291;28;20566;-77
2022/03/23 20:18:08;;;;;;;0.00;0.00;;;;;;;22.01;22.51;102879.53;10529725;28;20503;-78
2022/03/23 20:23:11;;;;;;;2.17;0.70;;;;;;;21.09;21.80;102879.31;10506597;28;20070;-78
2022/03/23 20:28:12;;;;;;;0.00;0.00;;;;;;;20.71;21.89;102879.63;10540383;28;20072;-78
2022/03/23 20:33:14;;;;;;;0.00;0.00;;;;;;;19.81;23.51;102885.94;10499055;28;20047;-77
2022/03/23 20:38:16;;;;;;;0.00;0.00;;;;;;;19.18;24.08;102882.91;10530611;28;20078;-78
2022/03/23 20:43:18;;;;;;;0.00;0.00;;;;;;;21.29;21.64;102876.06;10521787;28;20112;-77
2022/03/23 20:48:21;;;;;;;0.10;0.10;;;;;;;20.83;22.02;102877.22;10517642;28;20048;-77
2022/03/23 20:53:25;;;;;;;0.00;0.00;;;;;;;21.24;20.92;102876.91;10529280;28;20063;-77
2022/03/23 20:58:26;;;;;;;0.00;0.00;;;;;;;20.83;21.89;102881.59;10519541;28;20047;-78
2022/03/23 21:03:28;;;;;;;0.00;0.00;;;;;;;19.03;24.57;102880.84;10542718;28;20040;-77
2022/03/23 21:08:34;;;;;;;0.00;0.00;;;;;;;19.54;23.76;102886.25;10533944;28;20052;-77
2022/03/23 21:13:36;;;;;;;0.00;0.00;;;;;;;18.73;24.63;102894.94;10516509;28;20476;-77
2022/03/23 21:18:38;;;;;;;0.00;0.00;;;;;;;18.38;25.28;102888.00;10521088;28;20557;-78
2022/03/23 21:23:40;;;;;;;0.00;0.00;;;;;;;19.17;23.81;102881.16;10538615;28;20114;-77
2022/03/23 21:28:42;;;;;;;0.00;0.00;;;;;;;20.64;21.16;102883.00;10519026;28;20045;-77
2022/03/23 21:33:45;;;;;;;0.00;0.00;;;;;;;20.18;22.51;102886.63;10543341;28;20036;-77
2022/03/23 21:38:48;;;;;;;0.00;0.00;;;;;;;20.41;21.91;102878.28;10534403;28;20330;-78
2022/03/23 21:43:50;;;;;;;0.25;0.25;;;;;;;20.50;21.70;102878.44;10533568;28;20071;-78
2022/03/23 21:48:51;;;;;;;0.00;0.00;;;;;;;19.92;22.19;102884.41;10518773;28;20079;-78
2022/03/23 21:53:53;;;;;;;0.00;0.00;;;;;;;20.23;21.20;102879.72;10542016;28;20044;-78
2022/03/23 21:58:55;;;;;;;0.00;0.00;;;;;;;20.13;21.98;102869.97;10534731;28;20083;-78
2022/03/23 22:03:57;;;;;;;0.00;0.00;;;;;;;20.55;21.12;102868.03;10538808;28;20036;-78
2022/03/23 22:08:58;;;;;;;0.00;0.00;;;;;;;19.95;22.14;102874.00;10500633;28;20055;-78
2022/03/23 22:14:01;;;;;;;0.00;0.00;;;;;;;19.02;22.56;102879.94;10498709;28;20494;-78
2022/03/23 22:19:05;;;;;;;0.00;0.00;;;;;;;19.72;22.38;102878.78;10508176;28;20062;-78
2022/03/23 22:24:07;;;;;;;0.00;0.00;;;;;;;19.34;23.36;102879.78;10529536;27;20148;-78
2022/03/23 22:29:09;;;;;;;0.00;0.00;;;;;;;20.08;21.63;102874.22;10523522;28;20760;-77
2022/03/23 22:34:10;;;;;;;0.05;0.05;;;;;;;18.61;24.22;102874.63;10527453;28;20572;-78
2022/03/23 22:39:12;;;;;;;0.00;0.00;;;;;;;18.52;24.14;102870.09;10511407;28;20043;-77
2022/03/23 22:44:13;;;;;;;0.00;0.00;;;;;;;19.62;22.41;102875.09;10529482;28;20198;-77
2022/03/23 22:49:15;;;;;;;0.00;0.00;;;;;;;18.52;24.50;102866.56;10529478;28;20043;-77
2022/03/23 22:54:17;;;;;;;0.00;0.00;;;;;;;19.48;23.54;102867.00;10531810;28;20152;-78
2022/03/23 22:59:19;;;;;;;0.00;0.00;;;;;;;19.15;22.83;102864.56;10532377;28;20495;-77
2022/03/23 23:04:20;;;;;;;0.00;0.00;;;;;;;18.73;23.68;102863.59;10511197;28;20473;-78
2022/03/23 23:09:22;;;;;;;0.00;0.00;;;;;;;18.83;22.85;102870.81;10511993;28;20050;-78
2022/03/23 23:14:25;;;;;;;0.10;0.10;;;;;;;18.61;23.41;102864.19;10530937;28;20456;-77
2022/03/23 23:19:26;;;;;;;0.00;0.00;;;;;;;19.52;22.86;102862.72;10528804;28;20585;-77
2022/03/23 23:24:28;;;;;;;0.00;0.00;;;;;;;19.54;22.55;102860.13;10529445;28;20558;-78
2022/03/23 23:29:44;;;;;;;0.00;0.00;;;;;;;18.30;23.05;102858.22;10515687;28;20040;-77
2022/03/23 23:34:47;;;;;;;0.13;0.13;;;;;;;18.91;22.97;102854.44;10526438;28;20044;-77
2022/03/23 23:39:52;;;;;;;0.00;0.00;;;;;;;17.91;23.85;102853.69;10530233;28;20559;-77
2022/03/23 23:44:53;;;;;;;0.00;0.00;;;;;;;17.81;24.41;102856.94;10512203;28;20097;-77
2022/03/23 23:49:55;;;;;;;0.00;0.00;;;;;;;18.77;23.53;102854.13;10526397;28;20486;-77
2022/03/23 23:54:56;;;;;;;0.00;0.00;;;;;;;18.57;23.94;102851.94;10511402;28;20471;-77
2022/03/23 23:59:58;;;;;;;0.00;0.00;;;;;;;17.22;25.58;102852.69;10510791;28;20128;-77
